Flight Track Log - Related Links

Times and Time Zones

All times are in EDT time to prevent confusion due to time zone crossing. See the ASA525 flight status page for this flight to view local times or setup timezone preferences in your user account.

Time Position Orientation Groundspeed Altitude Reporting Facility
EDT Latitude Longitude Course Direction KTS MPH feet Rate Location/Type
Tue 02:05:21 PM 34.1667 -118.3667 231° Southwest 166 191 2,300  Level Southern California TRACON
Tue 02:06:22 PM 34.1333 -118.4167 231° Southwest 229 264 4,500 2,648 Climbing Southern California TRACON
Tue 02:08:54 PM 34.2461 -118.5492 316° Northwest 274 315 11,700 2,355 Climbing Los Angeles Center
Tue 02:09:56 PM 34.3272 -118.5933 336° Northwest 319 367 12,900 1,645 Climbing Los Angeles Center
Tue 02:10:58 PM 34.4247 -118.6478 335° Northwest 389 448 15,100 2,544 Climbing Los Angeles Center
Tue 02:12:01 PM 34.5253 -118.7042 335° Northwest 399 459 18,200 2,784 Climbing Los Angeles Center
Tue 02:13:03 PM 34.6503 -118.7764 335° Northwest 422 486 20,900 2,323 Climbing Los Angeles Center
Tue 02:14:05 PM 34.7592 -118.8378 335° Northwest 432 497 23,000 2,081 Climbing Los Angeles Center
Tue 02:15:07 PM 34.8756 -118.8919 339° North 444 511 25,200 1,984 Climbing Los Angeles Center
Tue 02:16:09 PM 35.0067 -118.9378 344° North 457 526 27,100 1,887 Climbing Los Angeles Center
Tue 02:17:11 PM 35.1333 -118.9731 347° North 466 536 29,100 1,887 Climbing Los Angeles Center
Tue 02:18:13 PM 35.2606 -119.0094 347° North 471 542 31,000 1,742 Climbing Los Angeles Center
Tue 02:19:15 PM 35.3842 -119.0456 347° North 462 532 32,700 1,790 Climbing Los Angeles Center
Tue 02:20:17 PM 35.5311 -119.0892 346° North 456 525 34,700 1,728 Climbing Los Angeles Center
Tue 02:21:20 PM 35.6517 -119.1244 347° North 448 516 36,300 1,448 Climbing Los Angeles Center
Tue 02:21:44 PM 35.6981 -119.1361 348° North 450 518 36,800 1,116 Climbing Oakland Center
Tue 02:22:46 PM 35.8175 -119.1731 346° North 446 513 37,900 585 Climbing Oakland Center
Tue 02:23:47 PM 35.9369 -119.2072 347° North 443 510 38,000 49 Climbing Oakland Center
Tue 02:24:48 PM 36.0575 -119.2447 346° North 446 513 38,000  Level Oakland Center
Tue 02:25:49 PM 36.1733 -119.2792 347° North 432 497 38,000  Level Oakland Center
Tue 02:26:51 PM 36.3108 -119.3208 346° North 426 490 38,000  Level Oakland Center
Tue 02:27:52 PM 36.4253 -119.3550 346° North 423 487 38,000  Level Oakland Center
Tue 02:28:53 PM 36.5408 -119.3900 346° North 426 490 38,000  Level Oakland Center
Tue 02:29:55 PM 36.6564 -119.4233 347° North 428 493 38,000  Level Oakland Center
Tue 02:30:56 PM 36.7728 -119.4583 346° North 431 496 38,000  Level Oakland Center
Tue 02:31:57 PM 36.8900 -119.4953 346° North 435 501 38,000  Level Oakland Center
Tue 02:32:58 PM 37.0064 -119.5319 346° North 430 495 38,000  Level Oakland Center
Tue 02:34:00 PM 37.1242 -119.5669 347° North 433 498 38,000  Level Oakland Center
Tue 02:35:01 PM 37.2414 -119.6036 346° North 435 501 38,000  Level Oakland Center
Tue 02:36:02 PM 37.3772 -119.6447 346° North 428 493 38,000  Level Oakland Center
Tue 02:37:04 PM 37.4928 -119.6806 346° North 427 491 38,000  Level Oakland Center
Tue 02:38:05 PM 37.6083 -119.7169 346° North 427 491 38,000  Level Oakland Center
Tue 02:39:06 PM 37.7231 -119.7519 346° North 426 490 38,000  Level Oakland Center
Tue 02:40:07 PM 37.8397 -119.7875 346° North 432 497 38,000  Level Oakland Center
Tue 02:41:09 PM 37.9572 -119.8242 346° North 434 499 38,000  Level Oakland Center
Tue 02:42:10 PM 38.0733 -119.8592 347° North 433 498 38,000  Level Oakland Center
Tue 02:43:11 PM 38.1847 -119.8969 345° North 420 483 38,000  Level Oakland Center
Tue 02:44:12 PM 38.3192 -119.9383 346° North 416 479 38,000  Level Oakland Center
Tue 02:45:14 PM 38.4336 -119.9750 346° North 422 486 38,000  Level Oakland Center
Tue 02:46:15 PM 38.5469 -120.0114 346° North 421 484 38,000  Level Oakland Center
Tue 02:47:16 PM 38.6600 -120.0481 346° North 421 484 38,000  Level Oakland Center
Tue 02:48:19 PM 38.7742 -120.0858 346° North 424 488 38,000 98 Level Oakland Center
Tue 02:49:19 PM 38.8872 -120.1211 346° North 421 484 38,200 793 Climbing Oakland Center
Tue 02:50:20 PM 38.9981 -120.1569 346° North 414 476 39,600 885 Climbing Oakland Center
Tue 02:51:21 PM 39.1075 -120.1936 345° North 410 472 40,000 197 Climbing Oakland Center
Tue 02:52:22 PM 39.2167 -120.2286 346° North 408 470 40,000  Level Oakland Center
Tue 02:53:23 PM 39.3492 -120.2717 346° North 407 468 40,000  Level Oakland Center
Tue 02:54:25 PM 39.4564 -120.3064 346° North 401 461 40,000  Level Oakland Center
Tue 02:55:26 PM 39.5594 -120.3403 346° North 391 450 40,000 -639 Level Oakland Center
Tue 02:56:27 PM 39.6600 -120.3736 346° North 379 436 38,700 -984 Descending Oakland Center
Tue 02:57:28 PM 39.7647 -120.4083 346° North 384 442 38,000 -341 Descending Oakland Center
Tue 02:58:30 PM 39.8683 -120.4425 346° North 386 444 38,000  Level Oakland Center
Tue 02:59:31 PM 39.9722 -120.4758 346° North 384 442 38,000  Level Oakland Center
Tue 03:00:32 PM 40.0850 -120.5153 345° North 389 448 38,000  Level Oakland Center
Tue 03:01:33 PM 40.1906 -120.5494 346° North 391 450 38,000  Level Oakland Center
Tue 03:02:34 PM 40.2956 -120.5847 346° North 391 450 38,000  Level Oakland Center
Tue 03:03:36 PM 40.4008 -120.6194 346° North 391 450 38,000  Level Oakland Center
Tue 03:04:51 PM 40.5294 -120.6600 347° North 394 453 38,000  Level Seattle Center
Tue 03:05:39 PM 40.6103 -120.6897 344° North 394 453 38,000  Level Oakland Center
Tue 03:06:39 PM 40.7161 -120.7181 349° North 390 449 38,000  Level Oakland Center
Tue 03:07:40 PM 40.8364 -120.7625 344° North 377 434 38,000  Level Oakland Center
Tue 03:08:42 PM 40.9381 -120.7969 346° North 375 432 38,000  Level Oakland Center
Tue 03:09:43 PM 41.0378 -120.8336 345° North 372 428 38,000  Level Oakland Center
Tue 03:10:44 PM 41.1372 -120.8736 343° North 374 430 38,000  Level Oakland Center
Tue 03:11:57 PM 41.2614 -120.9144 346° North 383 441 38,000  Level Seattle Center
Tue 03:12:58 PM 41.3636 -120.9492 346° North 382 440 38,000  Level Seattle Center
Tue 03:13:59 PM 41.4633 -120.9875 344° North 377 434 38,000  Level Seattle Center
Tue 03:15:00 PM 41.5639 -121.0225 345° North 375 432 38,000  Level Seattle Center
Tue 03:16:01 PM 41.6656 -121.0581 345° North 377 434 38,000  Level Seattle Center
Tue 03:17:02 PM 41.7656 -121.0931 345° North 374 430 38,000  Level Seattle Center
Tue 03:18:03 PM 41.8864 -121.1364 345° North 375 432 38,000  Level Seattle Center
Tue 03:19:04 PM 41.9844 -121.1703 346° North 368 423 38,000  Level Seattle Center
Tue 03:20:05 PM 42.0825 -121.2056 345° North 366 421 38,000  Level Seattle Center
Tue 03:21:06 PM 42.1811 -121.2408 345° North 368 423 38,000  Level Seattle Center
Tue 03:22:07 PM 42.2806 -121.2758 345° North 371 427 38,000  Level Seattle Center
Tue 03:23:08 PM 42.3767 -121.3103 345° North 364 419 38,000  Level Seattle Center
Tue 03:24:09 PM 42.4736 -121.3464 345° North 362 417 38,000  Level Seattle Center
Tue 03:25:10 PM 42.5700 -121.3792 346° North 359 413 38,000  Level Seattle Center
Tue 03:26:11 PM 42.6675 -121.4139 345° North 361 415 38,000  Level Seattle Center
Tue 03:27:12 PM 42.7650 -121.4494 345° North 361 415 38,000  Level Seattle Center
Tue 03:28:13 PM 42.8608 -121.4856 345° North 359 413 38,000  Level Seattle Center
Tue 03:29:14 PM 42.9767 -121.5258 346° North 357 411 38,000  Level Seattle Center
Tue 03:30:15 PM 43.0717 -121.5650 343° North 355 409 38,000  Level Seattle Center
Tue 03:31:17 PM 43.1658 -121.5975 346° North 350 403 38,000  Level Seattle Center
Tue 03:32:18 PM 43.2589 -121.6322 345° North 346 398 38,000  Level Seattle Center
Tue 03:33:19 PM 43.3519 -121.6661 345° North 347 399 38,000  Level Seattle Center
Tue 03:34:20 PM 43.4442 -121.7014 344° North 343 395 38,000  Level Seattle Center
Tue 03:35:21 PM 43.5356 -121.7350 345° North 340 391 38,000  Level Seattle Center
Tue 03:36:22 PM 43.6272 -121.7683 345° North 341 392 38,000  Level Seattle Center
Tue 03:37:23 PM 43.7197 -121.8033 345° North 344 396 38,000  Level Seattle Center
Tue 03:38:24 PM 43.8217 -121.8414 345° North 341 392 38,000  Level Seattle Center
Tue 03:39:25 PM 43.9144 -121.8750 345° North 343 395 38,000  Level Seattle Center
Tue 03:40:26 PM 44.0075 -121.9089 345° North 334 384 38,000  Level Seattle Center
Tue 03:41:27 PM 44.0975 -121.9433 345° North 335 386 38,000  Level Seattle Center
Tue 03:42:28 PM 44.1856 -121.9781 344° North 330 380 38,000  Level Seattle Center
Tue 03:43:29 PM 44.2744 -122.0106 345° North 331 381 38,000  Level Seattle Center
Tue 03:44:30 PM 44.3647 -122.0461 344° North 336 387 38,000  Level Seattle Center
Tue 03:45:31 PM 44.4522 -122.0797 345° North 329 379 38,000  Level Seattle Center
Tue 03:46:32 PM 44.5414 -122.1147 344° North 332 382 38,000  Level Seattle Center
Tue 03:47:33 PM 44.6306 -122.1494 345° North 332 382 38,000  Level Seattle Center
Tue 03:48:34 PM 44.7369 -122.1911 344° North 332 382 38,000  Level Seattle Center
Tue 03:49:35 PM 44.8281 -122.2256 345° North 336 387 38,000  Level Seattle Center
Tue 03:50:36 PM 44.9067 -122.2569 344° North 339 390 38,000  Level Seattle Center
Tue 03:51:37 PM 44.9986 -122.2950 344° North 343 395 38,000  Level Seattle Center
Tue 03:52:38 PM 45.0903 -122.3300 345° North 343 395 38,000  Level Seattle Center
Tue 03:53:39 PM 45.1992 -122.3739 344° North 341 392 38,000  Level Seattle Center
Tue 03:54:40 PM 45.2903 -122.4094 345° North 341 392 38,000  Level Seattle Center
Tue 03:55:41 PM 45.3811 -122.4444 345° North 340 391 38,000  Level Seattle Center
Tue 03:56:42 PM 45.4717 -122.4806 344° North 340 391 38,000 -98 Level Seattle Center
Tue 03:57:43 PM 45.5628 -122.5183 344° North 341 392 37,800 -590 Descending Seattle Center
Tue 03:58:44 PM 45.6531 -122.5556 344° North 341 392 36,800 -934 Descending Seattle Center
Tue 03:59:45 PM 45.7447 -122.5928 344° North 341 392 35,900 -934 Descending Seattle Center
Tue 04:00:46 PM 45.8406 -122.6158 350° North 349 402 34,900 -992 Descending Seattle Center
Tue 04:01:46 PM 45.9347 -122.6397 350° North 346 398 33,900 -2,033 Descending Seattle Center
Tue 04:02:47 PM 46.0306 -122.6628 351° North 349 402 30,800 -2,361 Descending Seattle Center
Tue 04:03:48 PM 46.1222 -122.6875 349° North 335 386 29,100 -1,918 Descending Seattle Center
Tue 04:04:49 PM 46.2119 -122.7031 353° North 305 351 26,900 -1,967 Descending Seattle Center
Tue 04:05:50 PM 46.2894 -122.7169 353° North 286 329 25,100 -1,820 Descending Seattle Center
Tue 04:06:51 PM 46.3689 -122.7242 356° North 289 333 23,200 -2,066 Descending Seattle Center
Tue 04:07:52 PM 46.4650 -122.7183 North 293 337 20,900 -2,115 Descending Seattle Center
Tue 04:08:53 PM 46.5494 -122.7144 North 305 351 18,900 -1,820 Descending Seattle Center
Tue 04:09:54 PM 46.6322 -122.7122 North 301 346 17,200 -1,955 Descending Seattle Center
Tue 04:11:05 PM 46.7367 -122.7094 North 302 348 14,600 -2,033 Descending Seattle Center
Tue 04:11:55 PM 46.7983 -122.7050 North 298 343 13,100 -1,514 Descending Seattle Center
Tue 04:12:56 PM 46.8636 -122.6425 33° Northeast 291 335 11,800 -1,417 Descending Seattle Center
Tue 04:14:02 PM 46.9347 -122.5444 43° Northeast 295 339 10,100 -1,328 Descending Seattle Center
Tue 04:14:58 PM 46.9803 -122.4853 42° Northeast 284 327 9,100 -1,385 Descending Seattle Center
Tue 04:15:59 PM 47.0392 -122.4194 37° Northeast 272 313 7,400 -1,525 Descending Seattle Center
Tue 04:17:00 PM 47.1158 -122.3567 29° Northeast 267 307 6,000 -952 Descending Seattle Center
Tue 04:18:05 PM 47.1872 -122.3322 13° North 231 266 5,400 -857 Descending Seattle Center
Tue 04:19:06 PM 47.2494 -122.3144 11° North 229 264 4,200 -1,279 Descending Seattle Center
Tue 04:20:07 PM 47.3161 -122.3139 360° North 239 275 2,800 -1,220 Descending Seattle Center
Tue 04:21:04 PM 47.3672 -122.3114 North 219 252 1,800 -966 Descending Seattle Center
Tue 04:22:05 PM 47.4106 -122.3117 360° North 162 186 900 -694 Descending Seattle Center
Tue 04:23:05 PM 47.4517 -122.3122 359° North 148 170 400 -500 Descending Seattle Center
Tue 04:25:00 PM 47.4499 -122.3118 170° South  Level Estimated

Login

Don't have an account? Register now (free) for customized features, flight alerts, and more!